createdAt,value
2022-08-05T05:03:20.258Z,99781.41
2022-08-05T05:04:29.986Z,99780.72
2022-08-05T05:05:28.918Z,99780.91
2022-08-05T05:06:39.867Z,99782.72
2022-08-05T05:08:42.752Z,99788.94
2022-08-05T05:09:40.797Z,99788.94
2022-08-05T05:10:24.557Z,99787.75
2022-08-05T05:11:11.660Z,99788.59
2022-08-05T05:12:02.881Z,99792.13
2022-08-05T05:14:08.807Z,99794.78
2022-08-05T05:14:58.001Z,99790.59
2022-08-05T05:15:56.594Z,99796.31
2022-08-05T05:16:50.529Z,99796.81
2022-08-05T05:17:57.037Z,99792.13
2022-08-05T05:18:56.941Z,99791.78
2022-08-05T05:19:47.369Z,99789.09
2022-08-05T05:20:34.357Z,99783.91
2022-08-05T05:21:20.244Z,99789.78
2022-08-05T05:22:22.614Z,99785.06
2022-08-05T05:23:19.858Z,99793.09
2022-08-05T05:24:17.634Z,99804.84
2022-08-05T05:25:20.101Z,99811.53
2022-08-05T05:26:18.311Z,99819.75
2022-08-05T05:27:17.273Z,99811.53
2022-08-05T05:30:04.480Z,99805.69
2022-08-05T05:30:49.745Z,99811.88
2022-08-05T05:32:17.005Z,99807.69
2022-08-05T05:33:14.016Z,99794.28
2022-08-05T05:36:18.182Z,99777.03
2022-08-05T05:37:29.266Z,99789.75
2022-08-05T05:39:36.337Z,99800.97
2022-08-05T05:40:21.633Z,99810.53
2022-08-05T05:41:16.467Z,99813.03
2022-08-05T05:42:11.939Z,99821.41
2022-08-05T05:43:12.527Z,99822.91
2022-08-05T05:44:37.561Z,99820.75
2022-08-05T05:45:28.569Z,99822.91
2022-08-05T05:46:18.996Z,99825.78
2022-08-05T05:48:06.333Z,99829.28
2022-08-05T05:48:27.592Z,99835.63
2022-08-05T05:49:27.920Z,99827.25
2022-08-05T05:50:24.601Z,99829.94
2022-08-05T05:51:17.635Z,99821.56
2022-08-05T05:53:59.325Z,99831.63
2022-08-05T05:54:50.794Z,99838.97
2022-08-05T05:55:51.673Z,99840.66
2022-08-05T05:56:53.195Z,99840.66
2022-08-05T05:57:52.568Z,99836.28
2022-08-05T05:58:35.634Z,99839.31
2022-08-05T06:01:30.346Z,99835.78
2022-08-05T06:02:35.215Z,99826.59
2022-08-05T06:04:00.629Z,99824.06
2022-08-05T06:05:54.127Z,99809.31
2022-08-05T06:07:57.826Z,99796.09
2022-08-05T06:08:49.240Z,99791.59
2022-08-05T06:09:59.909Z,99783.41
2022-08-05T06:10:52.619Z,99783.91
2022-08-05T06:16:27.309Z,99816.53
2022-08-05T06:16:51.965Z,99812.53
2022-08-05T06:17:52.434Z,99810.19
2022-08-05T06:52:44.339Z,99818.38
2022-08-05T06:53:39.418Z,99826.72
2022-08-05T06:54:19.067Z,99828.75
2022-08-05T06:55:03.843Z,99834.59
2022-08-05T06:55:53.676Z,99834.94
2022-08-05T06:56:36.539Z,99831.94
2022-08-05T06:58:03.132Z,99838.94
2022-08-05T06:59:20.734Z,99849.97
2022-08-05T07:00:29.629Z,99858.00
2022-08-05T07:08:59.089Z,99853.34
2022-08-05T07:10:57.356Z,99844.13
2022-08-05T07:14:30.192Z,99849.16
2022-08-05T07:15:13.124Z,99858.72
2022-08-05T07:17:59.046Z,99870.75
2022-08-05T07:18:02.124Z,99863.03
2022-08-05T07:18:29.183Z,99869.09
2022-08-05T07:20:32.920Z,99874.47
2022-08-05T07:21:28.213Z,99878.75
2022-08-05T07:22:30.354Z,99882.13
2022-08-05T07:23:26.442Z,99886.47
2022-08-05T07:24:17.574Z,99887.81
2022-08-05T07:25:23.486Z,99887.81
2022-08-05T07:26:06.182Z,99889.16
2022-08-05T07:26:54.392Z,99882.13
2022-08-05T07:27:57.722Z,99885.31
2022-08-05T07:32:10.763Z,99882.13
2022-08-05T07:34:21.487Z,99888.13
2022-08-05T07:35:56.778Z,99890.84
2022-08-05T07:36:25.676Z,99891.16
2022-08-05T07:37:20.746Z,99890.50
2022-08-05T07:38:32.001Z,99895.16
2022-08-05T07:40:04.419Z,99889.78
2022-08-05T07:42:14.747Z,99892.47
2022-08-05T07:43:51.420Z,99898.16
2022-08-05T09:26:01.136Z,100060.41
2022-08-05T09:26:37.800Z,100060.03
2022-08-05T09:28:05.874Z,100058.34
2022-08-05T09:28:38.374Z,100062.88
2022-08-05T09:29:31.002Z,100062.00
2022-08-05T09:30:23.520Z,100060.19
2022-08-05T09:31:43.353Z,100065.69
2022-08-05T09:32:49.362Z,100072.03
2022-08-05T09:33:21.277Z,100072.72
2022-08-05T09:34:11.204Z,100074.41
2022-08-05T09:35:00.029Z,100066.38
2022-08-05T09:35:50.251Z,100066.84
2022-08-05T09:36:54.930Z,100071.88
2022-08-05T09:38:12.480Z,100073.88
2022-08-05T09:39:21.940Z,100069.66
2022-08-05T09:42:28.694Z,100083.72
2022-08-05T09:43:15.311Z,100080.34
2022-08-05T09:43:59.841Z,100080.06
2022-08-05T09:44:46.034Z,100086.00
2022-08-05T09:46:07.169Z,100086.53
2022-08-05T09:46:58.164Z,100074.47
2022-08-05T09:47:55.159Z,100079.69
2022-08-05T09:51:15.297Z,100092.38
2022-08-05T09:52:01.412Z,100080.66
2022-08-05T09:52:47.401Z,100092.66
2022-08-05T09:53:55.195Z,100088.44
2022-08-05T09:54:47.114Z,100083.94
2022-08-05T09:55:57.495Z,100096.31
2022-08-05T09:56:39.443Z,100092.66
2022-08-05T09:58:01.555Z,100086.88
2022-08-05T09:58:50.248Z,100092.91
2022-08-05T09:59:35.132Z,100085.72
2022-08-05T10:00:23.217Z,100083.03
2022-08-05T10:01:14.709Z,100082.88
2022-08-05T10:02:00.628Z,100089.53
2022-08-05T10:02:49.741Z,100082.66
2022-08-05T10:03:59.183Z,100088.38
2022-08-05T10:04:50.831Z,100092.75
2022-08-05T10:06:58.904Z,100089.94
2022-08-05T10:08:34.971Z,100094.56
2022-08-05T10:09:27.314Z,100097.81
2022-08-05T10:10:15.720Z,100104.13
2022-08-05T10:11:03.591Z,100104.44
2022-08-05T10:11:49.463Z,100104.44
2022-08-05T10:12:37.912Z,100099.91
2022-08-05T10:15:55.026Z,100108.81
2022-08-05T10:16:53.136Z,100110.47
2022-08-05T10:17:56.640Z,100116.44
2022-08-05T10:18:41.940Z,100124.47
2022-08-05T10:19:31.878Z,100115.28
2022-08-05T10:20:30.518Z,100112.75
2022-08-05T10:21:16.643Z,100116.16
2022-08-05T10:22:07.341Z,100117.13
2022-08-05T10:22:58.479Z,100117.56
2022-08-05T10:24:00.150Z,100116.22
2022-08-05T10:24:46.000Z,100120.41
2022-08-05T10:25:29.270Z,100113.69
2022-08-05T10:26:15.347Z,100122.69
2022-08-05T10:27:03.722Z,100119.03
2022-08-05T10:28:13.422Z,100119.34
2022-08-05T10:29:08.534Z,100120.84
2022-08-05T10:31:20.945Z,100122.69
2022-08-05T10:32:49.238Z,100122.09
2022-08-05T10:32:51.791Z,100127.75
2022-08-05T10:33:35.162Z,100130.41
2022-08-05T10:34:19.409Z,100126.06
2022-08-05T10:35:10.836Z,100133.47
2022-08-05T10:35:59.665Z,100140.53
2022-08-05T10:36:45.588Z,100139.81
2022-08-05T10:37:40.184Z,100139.56
2022-08-05T10:38:38.167Z,100135.09
2022-08-05T10:40:03.235Z,100142.41
2022-08-05T10:40:34.467Z,100139.72
2022-08-05T10:41:25.887Z,100139.13
2022-08-05T10:42:38.193Z,100131.41
2022-08-05T10:44:47.721Z,100139.56
2022-08-05T10:45:47.229Z,100143.50
2022-08-05T10:47:03.238Z,100146.47
2022-08-05T10:48:31.359Z,100150.81
2022-08-05T10:49:10.434Z,100155.19
2022-08-05T10:50:31.935Z,100154.50
2022-08-05T10:51:48.686Z,100155.63
2022-08-05T10:52:58.716Z,100156.16
2022-08-05T10:54:56.443Z,100159.25
2022-08-05T10:56:04.675Z,100153.66
2022-08-05T10:57:02.792Z,100157.84
2022-08-05T11:00:04.362Z,100170.94
2022-08-05T11:00:23.138Z,100169.16
2022-08-05T11:01:13.289Z,100167.19
2022-08-05T11:02:37.718Z,100167.72
2022-08-05T11:05:50.797Z,100178.13
2022-08-05T11:06:37.272Z,100177.31
2022-08-05T11:07:33.157Z,100181.53
2022-08-05T11:08:37.311Z,100174.50
2022-08-05T11:09:39.385Z,100189.16
2022-08-05T11:10:50.354Z,100179.59
2022-08-05T11:11:53.225Z,100184.50
2022-08-05T11:12:54.458Z,100183.44
2022-08-05T11:13:58.081Z,100187.47
2022-08-05T11:15:11.947Z,100189.47
2022-08-05T11:16:00.688Z,100196.50
2022-08-05T11:16:57.096Z,100197.50
2022-08-05T11:17:59.309Z,100197.34
2022-08-05T11:18:49.507Z,100199.00
2022-08-05T11:20:49.497Z,100196.19
2022-08-05T11:21:49.569Z,100196.19
2022-08-05T11:23:05.886Z,100205.91
2022-08-05T11:24:05.409Z,100206.59
2022-08-05T11:26:03.200Z,100204.06
2022-08-05T11:26:13.692Z,100210.28
2022-08-05T11:26:59.062Z,100210.56
2022-08-05T11:27:51.965Z,100220.56
2022-08-05T11:28:48.651Z,100216.91
2022-08-05T11:29:46.324Z,100222.25
2022-08-05T11:30:37.726Z,100216.75
2022-08-05T11:31:58.023Z,100222.09
2022-08-05T11:32:32.264Z,100224.34
2022-08-05T11:33:46.717Z,100231.53
2022-08-05T11:35:06.848Z,100236.31
2022-08-05T11:36:04.510Z,100228.00
2022-08-05T11:36:57.804Z,100233.03
2022-08-05T11:38:28.240Z,100235.03
2022-08-05T11:38:52.390Z,100237.31
2022-08-05T11:40:03.377Z,100238.59
2022-08-05T11:41:35.084Z,100239.72
2022-08-05T11:42:27.936Z,100230.84
2022-08-05T11:43:16.338Z,100233.94
2022-08-05T11:44:40.559Z,100232.25
2022-08-05T11:45:23.260Z,100234.78
2022-08-05T11:46:33.255Z,100237.47
2022-08-05T11:47:25.192Z,100240.13
2022-08-05T11:48:13.144Z,100237.47
2022-08-05T11:48:46.342Z,100239.31
2022-08-05T11:49:18.787Z,100239.31
2022-08-05T11:49:55.038Z,100238.00
2022-08-05T11:50:27.672Z,100239.69
2022-08-05T11:50:59.500Z,100238.97
2022-08-05T11:51:44.052Z,100237.03
2022-08-05T11:52:24.144Z,100242.66
2022-08-05T11:53:04.059Z,100240.28
2022-08-05T11:53:40.850Z,100239.31
2022-08-05T11:54:13.822Z,100246.47
2022-08-05T11:54:54.822Z,100243.50
2022-08-05T11:55:32.296Z,100241.78
2022-08-05T11:56:08.416Z,100241.50
2022-08-05T11:56:43.700Z,100253.91
2022-08-05T11:57:25.015Z,100246.84
2022-08-05T11:58:10.289Z,100244.31
2022-08-05T11:58:44.013Z,100244.31
2022-08-05T11:59:25.468Z,100235.91
2022-08-05T11:59:59.232Z,100247.47
2022-08-05T12:00:31.390Z,100241.78
2022-08-05T12:01:02.885Z,100235.31
2022-08-05T12:01:36.264Z,100247.31
2022-08-05T12:02:24.012Z,100238.84
2022-08-05T12:03:15.376Z,100245.91
2022-08-05T12:03:55.518Z,100240.69
2022-08-05T12:04:28.815Z,100248.00
2022-08-05T12:05:07.662Z,100234.94
2022-08-05T12:05:43.447Z,100242.38
2022-08-05T12:06:15.574Z,100235.06
2022-08-05T12:06:48.768Z,100236.16
2022-08-05T12:08:02.614Z,100242.38
2022-08-05T12:08:18.073Z,100240.69
2022-08-05T12:08:51.515Z,100232.78
2022-08-05T12:09:38.680Z,100233.94
2022-08-05T12:10:18.422Z,100230.25
2022-08-05T12:10:52.555Z,100231.56
2022-08-05T12:11:24.781Z,100234.78
2022-08-05T12:11:59.994Z,100238.28
2022-08-05T12:12:34.194Z,100238.72
2022-08-05T12:13:15.839Z,100240.00
2022-08-05T12:13:58.765Z,100236.31
2022-08-05T12:14:49.006Z,100235.31
2022-08-05T12:15:35.892Z,100225.22
2022-08-05T12:16:15.692Z,100238.97
2022-08-05T12:16:48.039Z,100233.47
2022-08-05T12:18:03.429Z,100233.47
2022-08-05T12:18:12.322Z,100231.97
2022-08-05T12:18:48.656Z,100226.63
2022-08-05T12:20:16.990Z,100229.59
2022-08-05T12:20:26.248Z,100225.94
2022-08-05T12:21:11.823Z,100224.38
2022-08-05T12:21:47.295Z,100233.34
2022-08-05T12:22:21.208Z,100223.50
2022-08-05T12:23:07.518Z,100228.72
2022-08-05T12:23:42.925Z,100236.59
2022-08-05T12:24:18.525Z,100238.09
2022-08-05T12:24:50.646Z,100228.22
2022-08-05T12:25:25.673Z,100233.72
2022-08-05T12:25:59.959Z,100228.00
2022-08-05T12:26:32.117Z,100231.38
2022-08-05T12:27:09.519Z,100225.16
2022-08-05T12:27:52.933Z,100228.00
2022-08-05T12:28:34.492Z,100226.63
2022-08-05T12:29:09.606Z,100229.69
2022-08-05T12:29:43.284Z,100224.34
2022-08-05T12:30:32.143Z,100231.66
2022-08-05T12:31:04.024Z,100225.47
2022-08-05T12:31:47.680Z,100229.97
2022-08-05T12:32:21.770Z,100233.03
2022-08-05T12:32:57.102Z,100235.72
2022-08-05T12:33:38.825Z,100230.66
2022-08-05T12:34:14.615Z,100231.06
2022-08-05T12:34:52.198Z,100228.22
2022-08-05T12:35:23.716Z,100242.75
2022-08-05T12:36:09.272Z,100238.00
2022-08-05T12:36:41.260Z,100241.66
2022-08-05T12:37:17.600Z,100238.00
2022-08-05T12:37:53.462Z,100244.03
2022-08-05T12:38:30.126Z,100243.63
2022-08-05T12:39:05.645Z,100233.63
2022-08-05T12:39:39.007Z,100245.19
2022-08-05T12:40:11.302Z,100242.22
2022-08-05T12:40:58.241Z,100240.69
2022-08-05T12:41:34.191Z,100243.75
2022-08-05T12:42:10.073Z,100242.06
2022-08-05T12:42:46.581Z,100249.38
2022-08-05T12:43:21.216Z,100253.06
2022-08-05T12:43:52.835Z,100243.06
2022-08-05T12:44:33.928Z,100248.41
2022-08-05T12:45:09.542Z,100248.13
2022-08-05T12:45:51.293Z,100247.09
2022-08-05T12:46:29.390Z,100244.44
2022-08-05T12:47:01.880Z,100251.91
2022-08-05T12:47:33.760Z,100256.56
2022-08-05T12:48:27.843Z,100254.19
2022-08-05T12:49:14.298Z,100260.22
2022-08-05T12:50:04.464Z,100264.88
2022-08-05T12:50:37.620Z,100255.03
2022-08-05T12:51:18.898Z,100249.69
2022-08-05T12:52:12.955Z,100261.09
2022-08-05T12:52:57.945Z,100260.81
2022-08-05T12:53:36.727Z,100258.41
2022-08-05T12:54:16.581Z,100268.97
2022-08-05T12:54:54.929Z,100263.47
2022-08-05T12:55:28.325Z,100270.50
2022-08-05T12:56:00.082Z,100270.63
2022-08-05T12:56:34.857Z,100266.44
2022-08-05T12:57:09.637Z,100268.97
2022-08-05T12:58:50.059Z,100264.84
2022-08-05T12:58:50.396Z,100265.13
2022-08-05T12:59:46.861Z,100269.22
2022-08-05T13:02:00.102Z,100278.22
2022-08-05T13:02:01.454Z,100276.53
2022-08-05T13:02:07.818Z,100271.19
2022-08-05T13:02:40.846Z,100277.53
2022-08-05T13:03:12.744Z,100280.91
2022-08-05T13:03:48.884Z,100278.22
2022-08-05T13:04:23.283Z,100277.09
2022-08-05T13:04:56.854Z,100279.78
2022-08-05T13:05:37.406Z,100281.59
2022-08-05T13:06:11.958Z,100283.72
2022-08-05T13:06:51.850Z,100282.75
2022-08-05T13:07:47.831Z,100280.06
2022-08-05T13:08:17.312Z,100281.63
2022-08-05T13:08:52.009Z,100283.31
2022-08-05T13:09:28.590Z,100282.63
2022-08-05T13:10:01.090Z,100285.72
2022-08-05T13:10:32.793Z,100288.25
2022-08-05T13:11:04.518Z,100285.16
2022-08-05T13:12:02.514Z,100281.22
2022-08-05T13:12:29.978Z,100281.22
2022-08-05T13:13:02.581Z,100281.22
2022-08-05T13:14:06.218Z,100279.25
2022-08-05T13:14:36.312Z,100284.16
2022-08-05T13:15:13.713Z,100281.34
2022-08-05T13:15:50.508Z,100284.31
2022-08-05T13:16:24.997Z,100287.13
2022-08-05T13:16:57.555Z,100282.09
2022-08-05T13:17:32.080Z,100291.50
2022-08-05T13:18:18.855Z,100288.81
2022-08-05T13:18:55.243Z,100286.00
2022-08-05T13:19:51.692Z,100285.47
2022-08-05T13:20:24.648Z,100284.59
2022-08-05T13:20:57.700Z,100290.38
2022-08-05T13:21:38.068Z,100285.47
2022-08-05T13:22:29.598Z,100282.94
2022-08-05T13:23:01.451Z,100290.56
2022-08-05T13:23:38.868Z,100290.94
2022-08-05T13:24:27.687Z,100287.72
2022-08-05T13:25:19.114Z,100287.13
2022-08-05T13:25:58.973Z,100286.44
2022-08-05T13:26:32.647Z,100283.75
2022-08-05T13:27:04.382Z,100289.78
2022-08-05T13:27:37.327Z,100282.78
2022-08-05T13:28:10.679Z,100284.44
2022-08-05T13:28:44.178Z,100288.69
2022-08-05T13:29:18.936Z,100282.63
2022-08-05T13:29:59.459Z,100286.28
2022-08-05T13:30:42.528Z,100281.47
2022-08-05T13:31:14.658Z,100285.31
2022-08-05T13:32:03.752Z,100285.31
2022-08-05T13:32:39.474Z,100282.50
2022-08-05T13:33:14.257Z,100285.84
2022-08-05T13:34:23.937Z,100286.00
2022-08-05T13:34:57.017Z,100283.19
2022-08-05T13:35:42.980Z,100279.53
2022-08-05T13:36:19.346Z,100278.53
2022-08-05T13:36:52.777Z,100282.50
2022-08-05T13:37:34.475Z,100286.84
2022-08-05T13:38:06.324Z,100290.66
2022-08-05T13:38:42.528Z,100289.50
2022-08-05T13:40:13.569Z,100295.56
2022-08-05T13:40:13.704Z,100292.19
2022-08-05T13:40:51.467Z,100290.22
2022-08-05T13:41:35.116Z,100289.50
2022-08-05T13:42:14.576Z,100296.56
2022-08-05T13:42:46.586Z,100293.72
2022-08-05T13:43:22.203Z,100296.41
2022-08-05T13:43:54.749Z,100296.13
2022-08-05T13:44:26.699Z,100297.78
2022-08-05T13:44:58.987Z,100296.13
2022-08-05T13:45:31.023Z,100300.59
2022-08-05T13:46:11.503Z,100304.28
2022-08-05T13:47:01.738Z,100302.59
2022-08-05T13:47:35.919Z,100301.63
2022-08-05T13:48:57.932Z,100298.66
2022-08-05T13:49:17.379Z,100300.59
2022-08-05T13:49:49.227Z,100297.94
2022-08-05T13:50:20.831Z,100309.63
2022-08-05T13:50:52.410Z,100304.56
2022-08-05T13:51:28.736Z,100310.63
2022-08-05T13:52:09.656Z,100316.66
2022-08-05T13:52:42.065Z,100313.00
2022-08-05T13:53:16.249Z,100311.31
2022-08-05T13:53:48.518Z,100312.03
2022-08-05T13:54:21.245Z,100311.31
2022-08-05T13:54:56.893Z,100311.00
2022-08-05T13:55:41.484Z,100314.56
2022-08-05T13:56:20.190Z,100309.34
2022-08-05T13:56:52.007Z,100313.00
2022-08-05T13:57:24.395Z,100309.34
2022-08-05T13:57:56.009Z,100309.22
2022-08-05T13:58:30.767Z,100311.88
2022-08-05T13:59:05.973Z,100315.38
2022-08-05T13:59:57.429Z,100321.03
2022-08-05T14:00:31.074Z,100316.38
2022-08-05T14:01:02.620Z,100317.91
2022-08-05T14:01:40.401Z,100316.38
2022-08-05T14:02:20.050Z,100322.88
2022-08-05T14:02:51.925Z,100315.38
2022-08-05T14:03:23.653Z,100319.75
2022-08-05T14:03:55.244Z,100315.25
2022-08-05T14:04:31.260Z,100318.06
2022-08-05T14:05:05.200Z,100314.41
2022-08-05T14:06:04.587Z,100315.09
2022-08-05T14:06:34.771Z,100316.38
2022-08-05T14:07:25.375Z,100315.38
2022-08-05T14:08:02.843Z,100310.88
2022-08-05T14:08:38.764Z,100308.19
2022-08-05T14:09:11.254Z,100302.00
2022-08-05T14:09:46.408Z,100305.38
2022-08-05T14:10:28.640Z,100308.91
2022-08-05T14:11:08.129Z,100304.53
2022-08-05T14:12:04.241Z,100302.84
2022-08-05T14:12:48.735Z,100299.34
2022-08-05T14:13:20.614Z,100303.72
2022-08-05T14:13:56.903Z,100306.38
2022-08-05T14:14:33.643Z,100304.53
2022-08-05T14:15:05.894Z,100305.38
2022-08-05T14:16:04.816Z,100308.91
2022-08-05T14:16:40.974Z,100307.75
2022-08-05T14:17:16.697Z,100313.13
2022-08-05T14:17:48.688Z,100312.44
2022-08-05T14:18:23.463Z,100312.44
2022-08-05T14:18:55.726Z,100316.94
2022-08-05T14:19:27.993Z,100311.00
2022-08-05T14:20:07.634Z,100314.56
2022-08-05T14:20:39.480Z,100312.03
2022-08-05T14:22:07.168Z,100319.75
2022-08-05T14:22:12.132Z,100316.06
2022-08-05T14:22:50.261Z,100315.38
2022-08-05T14:23:24.663Z,100321.72
2022-08-05T14:23:57.640Z,100317.22
2022-08-05T14:24:32.267Z,100327.06
2022-08-05T14:25:06.416Z,100320.59
2022-08-05T14:25:58.603Z,100328.75
2022-08-05T14:26:38.830Z,100321.44
2022-08-05T14:27:19.373Z,100319.91
2022-08-05T14:27:51.034Z,100319.19
2022-08-05T14:28:26.355Z,100328.22
2022-08-05T14:28:58.190Z,100314.84
2022-08-05T14:29:31.872Z,100322.00
2022-08-05T14:30:04.298Z,100319.50
2022-08-05T14:30:36.058Z,100328.06
2022-08-05T14:31:17.266Z,100316.94
2022-08-05T14:32:12.335Z,100321.13
2022-08-05T14:32:45.866Z,100323.81
2022-08-05T14:33:22.617Z,100321.28
2022-08-05T14:33:59.566Z,100317.47
2022-08-05T14:34:35.117Z,100321.13
2022-08-05T14:35:10.618Z,100318.88
2022-08-05T14:35:51.518Z,100320.81
2022-08-05T14:36:23.487Z,100317.19
2022-08-05T14:36:54.991Z,100322.16
2022-08-05T14:37:42.192Z,100319.28
2022-08-05T14:38:31.833Z,100326.50
2022-08-05T14:39:04.983Z,100321.69
2022-08-05T14:39:50.013Z,100324.66
2022-08-05T14:40:28.134Z,100333.81
2022-08-05T14:40:59.791Z,100327.50
2022-08-05T14:41:32.121Z,100323.66
2022-08-05T14:42:20.848Z,100328.19
2022-08-05T14:42:53.011Z,100329.84
2022-08-05T14:43:57.456Z,100333.53
2022-08-05T14:44:20.634Z,100328.34
2022-08-05T14:44:53.653Z,100329.16
2022-08-05T14:45:28.200Z,100338.03
2022-08-05T14:45:59.856Z,100332.13
2022-08-05T14:46:31.407Z,100332.69
2022-08-05T14:47:03.006Z,100333.53
2022-08-05T14:48:05.084Z,100327.31
2022-08-05T14:48:33.376Z,100336.91
2022-08-05T14:49:07.252Z,100338.03
2022-08-05T14:49:59.494Z,100335.19
2022-08-05T14:50:30.918Z,100341.72
2022-08-05T14:51:03.155Z,100337.19
2022-08-05T14:51:38.235Z,100343.69
2022-08-05T14:52:10.124Z,100337.78
2022-08-05T14:52:53.175Z,100344.81
2022-08-05T14:53:29.805Z,100343.69
2022-08-05T14:54:26.102Z,100345.66
2022-08-05T14:54:53.441Z,100338.63
2022-08-05T14:55:25.177Z,100343.97
2022-08-05T14:55:56.886Z,100349.63
2022-08-05T14:56:28.505Z,100336.09
2022-08-05T14:57:00.871Z,100331.88
2022-08-05T14:57:56.037Z,100337.78
2022-08-05T14:58:28.354Z,100337.47
2022-08-05T14:59:01.006Z,100334.94
2022-08-05T14:59:35.814Z,100334.94
2022-08-05T15:00:08.140Z,100338.34
2022-08-05T15:00:58.548Z,100346.50
2022-08-05T15:01:48.666Z,100350.03
2022-08-05T15:02:21.401Z,100350.44
2022-08-05T15:02:53.257Z,100355.94
2022-08-05T15:03:24.897Z,100344.13
2022-08-05T15:03:56.447Z,100355.66
2022-08-05T15:04:29.063Z,100346.66
2022-08-05T15:05:00.722Z,100346.81
2022-08-05T15:06:08.159Z,100344.13
2022-08-05T15:06:31.630Z,100348.47
2022-08-05T15:07:03.206Z,100347.91
2022-08-05T15:08:12.206Z,100352.44
2022-08-05T15:08:58.008Z,100355.50
2022-08-05T15:09:19.430Z,100354.69
2022-08-05T15:10:10.131Z,100353.69
2022-08-05T15:10:41.690Z,100353.81
2022-08-05T15:11:13.180Z,100349.47
2022-08-05T15:11:52.263Z,100358.34
2022-08-05T15:12:26.980Z,100356.63
2022-08-05T15:13:03.718Z,100362.84
2022-08-05T15:13:46.344Z,100346.25
2022-08-05T15:14:35.773Z,100352.16
2022-08-05T15:15:15.374Z,100356.34
2022-08-05T15:15:55.402Z,100353.69
2022-08-05T15:16:27.934Z,100352.84
2022-08-05T15:16:59.515Z,100353.41
2022-08-05T15:17:46.984Z,100358.75
2022-08-05T15:18:22.760Z,100355.50
2022-08-05T15:18:55.179Z,100358.19
2022-08-05T15:19:28.399Z,100354.81
2022-08-05T15:20:02.501Z,100352.00
2022-08-05T15:20:34.778Z,100356.34
2022-08-05T15:21:07.682Z,100358.34
2022-08-05T15:21:39.463Z,100353.97
2022-08-05T15:22:11.976Z,100349.75
2022-08-05T15:22:44.698Z,100356.97
2022-08-05T15:23:16.384Z,100355.25
2022-08-05T15:23:48.002Z,100357.78
2022-08-05T15:24:21.594Z,100354.97
2022-08-05T15:24:53.995Z,100355.81
2022-08-05T15:25:41.386Z,100351.03
2022-08-05T15:26:17.217Z,100362.31
2022-08-05T15:27:03.967Z,100356.97
2022-08-05T15:27:42.736Z,100356.38
2022-08-05T15:28:15.505Z,100356.97
2022-08-05T15:28:47.769Z,100352.59
2022-08-05T15:29:23.608Z,100354.09
2022-08-05T15:30:01.436Z,100358.75
2022-08-05T15:30:33.488Z,100360.31
2022-08-05T15:31:07.518Z,100348.47
2022-08-05T15:31:40.556Z,100358.34
2022-08-05T15:32:12.355Z,100357.66
2022-08-05T15:32:44.084Z,100355.25
2022-08-05T15:33:53.678Z,100356.09
2022-08-05T15:34:31.666Z,100359.31
2022-08-05T15:34:58.839Z,100367.19
2022-08-05T15:35:36.387Z,100356.97
2022-08-05T15:36:24.263Z,100353.41
2022-08-05T15:36:57.174Z,100358.34
2022-08-05T15:38:33.185Z,100356.34
2022-08-05T15:38:35.497Z,100364.38
2022-08-05T15:40:59.878Z,100364.81
2022-08-05T15:41:01.106Z,100360.88
2022-08-05T15:41:22.018Z,100355.81
2022-08-05T15:41:55.555Z,100359.63
2022-08-05T15:42:54.521Z,100352.16
2022-08-05T15:43:21.226Z,100352.84
2022-08-05T15:43:54.897Z,100353.81
2022-08-05T15:44:27.833Z,100353.81
2022-08-05T15:44:59.627Z,100351.59
2022-08-05T15:45:38.538Z,100352.16
2022-08-05T15:46:10.500Z,100358.06
2022-08-05T15:46:42.056Z,100352.56
2022-08-05T15:47:13.653Z,100353.38
2022-08-05T15:47:45.268Z,100353.53
2022-08-05T15:48:16.852Z,100352.69
2022-08-05T15:48:54.598Z,100355.50
2022-08-05T15:49:53.528Z,100359.16
2022-08-05T15:50:25.219Z,100351.00
2022-08-05T15:50:57.398Z,100351.88
2022-08-05T15:52:03.651Z,100353.69
2022-08-05T15:52:51.510Z,100356.22
2022-08-05T15:53:13.158Z,100355.22
2022-08-05T15:53:51.100Z,100357.06
2022-08-05T15:54:35.292Z,100351.88
2022-08-05T15:55:16.029Z,100349.47
2022-08-05T15:56:01.352Z,100348.47
2022-08-05T15:56:36.087Z,100356.22
2022-08-05T15:57:08.034Z,100355.50
2022-08-05T15:57:42.701Z,100349.88
2022-08-05T15:58:17.033Z,100349.88
2022-08-05T15:58:48.650Z,100353.53
2022-08-05T15:59:22.475Z,100351.00
2022-08-05T15:59:57.777Z,100352.69
2022-08-05T16:00:50.216Z,100348.19
2022-08-05T16:01:21.222Z,100351.72
2022-08-05T16:02:01.214Z,100352.69
2022-08-05T16:02:33.147Z,100349.03
2022-08-05T16:03:04.981Z,100352.69
2022-08-05T16:03:41.183Z,100347.91
2022-08-05T16:04:13.185Z,100351.72
2022-08-05T16:04:49.746Z,100349.88
2022-08-05T16:05:21.302Z,100348.19
2022-08-05T16:05:59.840Z,100348.91
2022-08-05T16:06:31.481Z,100347.06
2022-08-05T16:07:03.011Z,100351.56
2022-08-05T16:07:37.513Z,100351.56
2022-08-05T16:08:09.101Z,100349.03
2022-08-05T16:08:40.590Z,100350.56
2022-08-05T16:09:12.450Z,100349.03
2022-08-05T16:09:46.365Z,100351.88
2022-08-05T16:10:23.332Z,100351.88
2022-08-05T16:10:57.171Z,100352.56
2022-08-05T16:11:43.079Z,100350.03
2022-08-05T16:12:15.437Z,100351.41
2022-08-05T16:12:47.186Z,100353.53
2022-08-05T16:13:23.843Z,100346.22
2022-08-05T16:14:03.597Z,100352.56
2022-08-05T16:14:35.230Z,100346.22
2022-08-05T16:15:07.015Z,100348.19
2022-08-05T16:15:41.224Z,100346.38
2022-08-05T16:16:13.372Z,100343.69
2022-08-05T16:16:53.725Z,100341.84
2022-08-05T16:17:25.589Z,100346.50
2022-08-05T16:17:57.702Z,100346.50
2022-08-05T16:18:29.773Z,100336.50
2022-08-05T16:19:01.416Z,100348.03
2022-08-05T16:20:05.607Z,100352.84
2022-08-05T16:20:25.400Z,100346.22
2022-08-05T16:20:56.965Z,100344.53
2022-08-05T16:22:00.136Z,100338.19
2022-08-05T16:22:27.444Z,100342.00
2022-08-05T16:23:05.377Z,100338.34
2022-08-05T16:23:53.795Z,100351.56
2022-08-05T16:24:40.321Z,100343.13
2022-08-05T16:25:12.416Z,100345.66
2022-08-05T16:25:45.155Z,100347.19
2022-08-05T16:26:26.160Z,100348.47
2022-08-05T16:26:59.219Z,100350.84
2022-08-05T16:28:01.063Z,100344.53
2022-08-05T16:28:24.262Z,100347.50
2022-08-05T16:28:55.977Z,100352.69
2022-08-05T16:29:27.626Z,100352.56
2022-08-05T16:30:02.712Z,100351.88
2022-08-05T16:30:35.994Z,100354.81
2022-08-05T16:31:07.903Z,100352.16
2022-08-05T16:31:57.038Z,100346.09
2022-08-05T16:32:29.822Z,100355.50
2022-08-05T16:33:02.227Z,100353.69
2022-08-05T16:33:41.329Z,100354.41
2022-08-05T16:34:13.547Z,100352.69
2022-08-05T16:34:46.287Z,100365.25
2022-08-05T16:35:27.702Z,100358.19
2022-08-05T16:35:59.796Z,100360.59
2022-08-05T16:36:34.326Z,100362.56
2022-08-05T16:38:02.930Z,100360.88
2022-08-05T16:38:03.685Z,100365.25
2022-08-05T16:38:55.013Z,100362.56
2022-08-05T16:40:04.606Z,100367.19
2022-08-05T16:40:26.751Z,100365.25